createdAt,value
2016-05-17T00:00:45.640Z,7.79
2016-05-17T00:01:45.612Z,7.85
2016-05-17T00:02:45.600Z,7.8
2016-05-17T00:03:45.539Z,7.79
2016-05-17T00:04:45.495Z,7.8
2016-05-17T00:05:45.466Z,7.85
2016-05-17T00:06:46.156Z,7.85
2016-05-17T00:07:45.394Z,7.83
2016-05-17T00:08:45.365Z,7.86
2016-05-17T00:09:45.321Z,7.85
2016-05-17T00:10:45.136Z,7.83
2016-05-17T00:11:45.249Z,7.83
2016-05-17T00:12:45.048Z,7.83
2016-05-17T00:13:45.160Z,7.82
2016-05-17T00:14:44.975Z,7.83
2016-05-17T00:15:45.102Z,7.85
2016-05-17T00:16:44.918Z,7.85
2016-05-17T00:17:45.030Z,7.85
2016-05-17T00:18:44.985Z,7.87
2016-05-17T00:19:44.958Z,7.83
2016-05-17T00:20:44.929Z,7.79
2016-05-17T00:21:44.869Z,7.8
2016-05-17T00:22:44.841Z,7.83
2016-05-17T00:23:44.827Z,7.85
2016-05-17T00:24:44.768Z,7.83
2016-05-17T00:25:44.739Z,7.82
2016-05-17T00:26:44.710Z,7.97
2016-05-17T00:27:44.667Z,7.86
2016-05-17T00:28:44.466Z,7.89
2016-05-17T00:29:44.593Z,7.89
2016-05-17T00:30:44.550Z,7.9
2016-05-17T00:31:44.520Z,7.93
2016-05-17T00:32:44.477Z,7.97
2016-05-17T00:33:44.292Z,8
2016-05-17T00:34:44.247Z,7.98
2016-05-17T00:35:44.375Z,7.97
2016-05-17T00:36:44.722Z,8.01
2016-05-17T00:37:44.319Z,8.01
2016-05-17T00:38:44.259Z,8
2016-05-17T00:39:44.214Z,8.02
2016-05-17T00:40:44.030Z,8.08
2016-05-17T00:41:44.157Z,8.15
2016-05-17T00:42:44.128Z,8.19
2016-05-17T00:43:44.085Z,8.18
2016-05-17T00:44:44.041Z,8.18
2016-05-17T00:45:44.012Z,8.28
2016-05-17T00:46:43.983Z,8.25
2016-05-17T00:47:43.924Z,8.2
2016-05-17T00:48:43.895Z,8.2
2016-05-17T00:49:43.882Z,8.22
2016-05-17T00:50:43.665Z,8.22
2016-05-17T00:51:43.637Z,8.22
2016-05-17T00:52:43.749Z,8.26
2016-05-17T00:53:43.721Z,8.22
2016-05-17T00:54:43.676Z,8.18
2016-05-17T00:55:43.492Z,8.23
2016-05-17T00:56:43.620Z,8.19
2016-05-17T00:57:43.575Z,8.2
2016-05-17T00:58:43.546Z,8.19
2016-05-17T00:59:43.503Z,8.33
2016-05-17T01:00:43.521Z,8.22
2016-05-17T01:01:43.430Z,8.15
2016-05-17T01:02:43.386Z,8.2
2016-05-17T01:03:43.217Z,8.22
2016-05-17T01:04:43.156Z,8.18
2016-05-17T01:05:43.284Z,8.2
2016-05-17T01:06:43.271Z,8.18
2016-05-17T01:07:43.228Z,8.23
2016-05-17T01:08:43.167Z,8.25
2016-05-17T01:09:43.139Z,8.19
2016-05-17T01:10:42.954Z,8.25
2016-05-17T01:11:43.081Z,8.23
2016-05-17T01:12:43.022Z,8.16
2016-05-17T01:13:42.994Z,8.2
2016-05-17T01:14:42.964Z,8.18
2016-05-17T01:15:42.921Z,8.18
2016-05-17T01:16:42.736Z,8.18
2016-05-17T01:17:42.848Z,8.12
2016-05-17T01:18:42.819Z,8.19
2016-05-17T01:19:42.775Z,8.05
2016-05-17T01:20:42.591Z,8.05
2016-05-17T01:21:42.702Z,8.08
2016-05-17T01:22:42.674Z,8.05
2016-05-17T01:23:42.629Z,8
2016-05-17T01:24:42.601Z,8.02
2016-05-17T01:25:42.416Z,8
2016-05-17T01:26:42.529Z,8
2016-05-17T01:27:42.484Z,7.9
2016-05-17T01:28:42.456Z,7.83
2016-05-17T01:29:42.442Z,7.83
2016-05-17T01:30:42.382Z,7.8
2016-05-17T01:31:42.339Z,7.8
2016-05-17T01:32:42.309Z,7.8
2016-05-17T01:33:42.282Z,7.79
2016-05-17T01:34:42.237Z,7.8
2016-05-17T01:35:42.193Z,7.82
2016-05-17T01:36:42.165Z,7.75
2016-05-17T01:37:42.120Z,7.79
2016-05-17T01:38:42.108Z,7.77
2016-05-17T01:39:42.047Z,7.85
2016-05-17T01:40:42.019Z,7.79
2016-05-17T01:41:41.991Z,7.85
2016-05-17T01:42:41.947Z,7.85
2016-05-17T01:43:41.902Z,7.79
2016-05-17T01:44:41.749Z,7.87
2016-05-17T01:45:41.829Z,7.93
2016-05-17T01:46:41.800Z,7.82
2016-05-17T01:47:41.772Z,7.82
2016-05-17T01:48:41.727Z,7.83
2016-05-17T01:49:41.684Z,7.86
2016-05-17T01:50:41.655Z,7.89
2016-05-17T01:51:42.111Z,7.93
2016-05-17T01:52:41.583Z,7.9
2016-05-17T01:53:41.538Z,8
2016-05-17T01:54:41.494Z,8
2016-05-17T01:55:41.465Z,8.01
2016-05-17T01:56:41.437Z,8.05
2016-05-17T01:57:41.409Z,8.11
2016-05-17T01:58:41.365Z,8.1
2016-05-17T01:59:41.335Z,8.04
2016-05-17T02:00:41.307Z,8.15
2016-05-17T02:01:41.248Z,8.18
2016-05-17T02:02:41.218Z,8.15
2016-05-17T02:03:41.175Z,8.15
2016-05-17T02:04:41.145Z,8.16
2016-05-17T02:05:41.118Z,8.18
2016-05-17T02:06:41.073Z,8.19
2016-05-17T02:07:41.045Z,8.12
2016-05-17T02:08:41.001Z,8.2
2016-05-17T02:09:40.972Z,8.22
2016-05-17T02:10:40.928Z,8.22
2016-05-17T02:11:40.728Z,8.2
2016-05-17T02:12:40.855Z,8.12
2016-05-17T02:13:40.842Z,8.04
2016-05-17T02:14:40.783Z,8.02
2016-05-17T02:15:40.753Z,8.08
2016-05-17T02:16:40.710Z,8
2016-05-17T02:17:40.525Z,8.05
2016-05-17T02:18:40.636Z,7.97
2016-05-17T02:19:40.609Z,7.95
2016-05-17T02:20:40.563Z,7.97
2016-05-17T02:21:40.551Z,7.89
2016-05-17T02:22:40.491Z,8
2016-05-17T02:23:40.463Z,7.98
2016-05-17T02:24:40.419Z,8.02
2016-05-17T02:25:40.405Z,7.98
2016-05-17T02:26:40.346Z,8.01
2016-05-17T02:27:40.318Z,8.07
2016-05-17T02:28:40.273Z,8.07
2016-05-17T02:29:40.088Z,8.19
2016-05-17T02:30:40.201Z,8.16
2016-05-17T02:31:40.172Z,8.16
2016-05-17T02:32:39.971Z,8.18
2016-05-17T02:33:39.943Z,8.23
2016-05-17T02:34:40.133Z,8.23
2016-05-17T02:35:40.026Z,8.22
2016-05-17T02:36:39.825Z,8.23
2016-05-17T02:37:40.001Z,8.2
2016-05-17T02:38:39.909Z,8.2
2016-05-17T02:39:39.881Z,8.19
2016-05-17T02:40:39.915Z,8.3
2016-05-17T02:41:39.808Z,8.26
2016-05-17T02:42:39.623Z,8.29
2016-05-17T02:43:39.719Z,8.29
2016-05-17T02:44:39.691Z,8.28
2016-05-17T02:45:39.663Z,8.22
2016-05-17T02:46:39.634Z,8.16
2016-05-17T02:47:39.590Z,8.23
2016-05-17T02:48:39.561Z,8.22
2016-05-17T02:49:39.532Z,8.2
2016-05-17T02:50:39.488Z,8.23
2016-05-17T02:51:39.445Z,8.19
2016-05-17T02:52:39.416Z,8.22
2016-05-17T02:53:39.372Z,8.15
2016-05-17T02:54:39.343Z,8.18
2016-05-17T02:55:39.299Z,8.22
2016-05-17T02:56:39.271Z,8.25
2016-05-17T02:57:39.241Z,8.19
2016-05-17T02:58:39.198Z,8.22
2016-05-17T02:59:39.154Z,8.23
2016-05-17T03:00:39.110Z,8.19
2016-05-17T03:01:39.081Z,8.25
2016-05-17T03:02:39.052Z,8.16
2016-05-17T03:03:39.007Z,8.19
2016-05-17T03:04:38.979Z,8.2
2016-05-17T03:05:38.935Z,8.28
2016-05-17T03:06:38.906Z,8.2
2016-05-17T03:07:38.862Z,8.2
2016-05-17T03:08:38.678Z,8.2
2016-05-17T03:09:38.789Z,8.2
2016-05-17T03:10:38.761Z,8.2
2016-05-17T03:11:38.717Z,8.22
2016-05-17T03:12:38.704Z,8.2
2016-05-17T03:13:38.659Z,8.28
2016-05-17T03:14:38.616Z,8.2
2016-05-17T03:15:38.571Z,8.22
2016-05-17T03:16:38.543Z,8.19
2016-05-17T03:17:38.514Z,8.16
2016-05-17T03:18:38.470Z,8.2
2016-05-17T03:19:38.442Z,8.33
2016-05-17T03:20:38.382Z,8.34
2016-05-17T03:21:38.368Z,8.2
2016-05-17T03:22:38.324Z,8.23
2016-05-17T03:23:38.296Z,8.33
2016-05-17T03:24:38.252Z,8.2
2016-05-17T03:25:38.223Z,8.22
2016-05-17T03:26:38.194Z,8.2
2016-05-17T03:27:38.151Z,8.2
2016-05-17T03:28:38.138Z,8.18
2016-05-17T03:29:38.281Z,8.28
2016-05-17T03:30:38.034Z,8.22
2016-05-17T03:31:37.989Z,8.16
2016-05-17T03:32:37.961Z,8.19
2016-05-17T03:33:37.933Z,8.19
2016-05-17T03:34:37.888Z,8.19
2016-05-17T03:35:37.860Z,8.25
2016-05-17T03:36:37.893Z,8.23
2016-05-17T03:37:37.787Z,8.23
2016-05-17T03:38:37.586Z,8.23
2016-05-17T03:39:37.715Z,8.22
2016-05-17T03:40:37.686Z,8.16
2016-05-17T03:41:37.642Z,8.23
2016-05-17T03:42:37.597Z,8.19
2016-05-17T03:43:37.569Z,8.22
2016-05-17T03:44:37.556Z,8.15
2016-05-17T03:45:37.495Z,8.18
2016-05-17T03:46:37.467Z,8.12
2016-05-17T03:47:37.438Z,8.19
2016-05-17T03:48:37.379Z,8.15
2016-05-17T03:49:37.350Z,8.15
2016-05-17T03:50:37.321Z,8.15
2016-05-17T03:51:37.684Z,8.22
2016-05-17T03:52:37.233Z,8.2
2016-05-17T03:53:37.205Z,8.16
2016-05-17T03:54:37.176Z,8.2
2016-05-17T03:55:37.132Z,8.19
2016-05-17T03:56:37.104Z,8.18
2016-05-17T03:57:37.060Z,8.22
2016-05-17T03:58:37.030Z,8.18
2016-05-17T03:59:36.987Z,8.18
2016-05-17T04:00:36.943Z,8.25
2016-05-17T04:01:36.913Z,8.2
2016-05-17T04:02:36.870Z,8.23
2016-05-17T04:03:36.840Z,8.23
2016-05-17T04:04:36.813Z,8.16
2016-05-17T04:05:36.769Z,8.23
2016-05-17T04:06:36.631Z,8.19
2016-05-17T04:07:36.696Z,8.23
2016-05-17T04:08:36.667Z,8.19
2016-05-17T04:09:36.482Z,8.19
2016-05-17T04:10:36.594Z,8.25
2016-05-17T04:11:36.550Z,8.22
2016-05-17T04:12:36.522Z,8.22
2016-05-17T04:13:36.493Z,8.22
2016-05-17T04:14:36.323Z,8.23
2016-05-17T04:15:36.405Z,8.18
2016-05-17T04:16:36.376Z,8.2
2016-05-17T04:17:36.410Z,8.22
2016-05-17T04:18:36.303Z,8.22
2016-05-17T04:19:36.258Z,8.23
2016-05-17T04:20:36.231Z,8.19
2016-05-17T04:21:36.297Z,8.1
2016-05-17T04:22:36.158Z,8.07
2016-05-17T04:23:36.130Z,8.16
2016-05-17T04:24:36.100Z,8.05
2016-05-17T04:25:36.057Z,8.12
2016-05-17T04:26:36.027Z,8.08
2016-05-17T04:27:35.983Z,8.02
2016-05-17T04:28:35.940Z,8.02
2016-05-17T04:29:35.755Z,8.1
2016-05-17T04:30:35.866Z,8.12
2016-05-17T04:31:35.838Z,8.1
2016-05-17T04:32:35.794Z,8.04
2016-05-17T04:33:35.765Z,8.07
2016-05-17T04:34:35.596Z,8.19
2016-05-17T04:35:35.692Z,8.2
2016-05-17T04:36:35.680Z,8.2
2016-05-17T04:37:35.621Z,8.23
2016-05-17T04:38:35.592Z,8.23
2016-05-17T04:39:35.391Z,8.26
2016-05-17T04:40:35.518Z,8.23
2016-05-17T04:41:35.475Z,8.22
2016-05-17T04:42:35.445Z,8.3
2016-05-17T04:43:35.401Z,8.34
2016-05-17T04:44:35.358Z,8.34
2016-05-17T04:45:35.345Z,8.28
2016-05-17T04:46:35.301Z,8.36
2016-05-17T04:47:35.256Z,8.34
2016-05-17T04:48:35.072Z,8.34
2016-05-17T04:49:35.199Z,8.41
2016-05-17T04:50:35.170Z,8.44
2016-05-17T04:51:35.251Z,8.4
2016-05-17T04:52:35.083Z,8.48
2016-05-17T04:53:35.054Z,8.52
2016-05-17T04:54:35.010Z,8.55
2016-05-17T04:55:34.981Z,8.55
2016-05-17T04:56:34.936Z,8.53
2016-05-17T04:57:34.893Z,8.52
2016-05-17T04:58:34.880Z,8.5
2016-05-17T04:59:34.819Z,8.53
2016-05-17T05:00:34.791Z,8.53
2016-05-17T05:01:34.763Z,8.58
2016-05-17T05:02:34.719Z,8.59
2016-05-17T05:03:34.737Z,8.62
2016-05-17T05:04:34.662Z,8.62
2016-05-17T05:05:34.617Z,8.56
2016-05-17T05:06:34.588Z,8.66
2016-05-17T05:07:34.544Z,8.62
2016-05-17T05:08:34.531Z,8.66
2016-05-17T05:09:34.509Z,8.77
2016-05-17T05:10:34.507Z,8.89
2016-05-17T05:11:34.506Z,8.89
2016-05-17T05:12:34.364Z,9.01
2016-05-17T05:13:34.519Z,9.08
2016-05-17T05:14:34.520Z,9.02
2016-05-17T05:15:34.507Z,9.23
2016-05-17T05:16:34.479Z,9.21
2016-05-17T05:17:34.308Z,9.28
2016-05-17T05:18:34.437Z,9.28
2016-05-17T05:19:34.247Z,9.33
2016-05-17T05:20:34.380Z,9.33
2016-05-17T05:21:34.388Z,9.43
2016-05-17T05:22:34.317Z,9.42
2016-05-17T05:23:34.293Z,9.5
2016-05-17T05:24:34.269Z,9.43
2016-05-17T05:25:34.274Z,9.48
2016-05-17T05:26:34.185Z,9.56
2016-05-17T05:27:34.158Z,9.66
2016-05-17T05:28:34.132Z,9.69
2016-05-17T05:29:34.104Z,9.74
2016-05-17T05:30:34.061Z,9.83
2016-05-17T05:31:33.876Z,9.86
2016-05-17T05:32:33.989Z,10.05
2016-05-17T05:33:33.962Z,10.12
2016-05-17T05:34:33.933Z,10.12
2016-05-17T05:35:33.890Z,10.18
2016-05-17T05:36:33.862Z,10.27
2016-05-17T05:37:33.834Z,10.33
2016-05-17T05:38:33.790Z,10.47
2016-05-17T05:39:34.590Z,10.53
2016-05-17T05:40:33.717Z,10.73
2016-05-17T05:41:33.704Z,10.78
2016-05-17T05:42:33.644Z,10.99
2016-05-17T05:43:33.632Z,10.99
2016-05-17T05:44:33.587Z,11.02
2016-05-17T05:45:33.543Z,11.07
2016-05-17T05:46:33.515Z,11.11
2016-05-17T05:47:33.486Z,11.21
2016-05-17T05:48:33.443Z,11.25
2016-05-17T05:49:33.256Z,11.29
2016-05-17T05:50:33.384Z,11.37
2016-05-17T05:51:33.903Z,11.33
2016-05-17T05:52:33.312Z,11.28
2016-05-17T05:53:33.284Z,11.33
2016-05-17T05:54:33.256Z,11.35
2016-05-17T05:55:33.070Z,11.33
2016-05-17T05:56:33.182Z,11.33
2016-05-17T05:57:33.154Z,11.28
2016-05-17T05:58:33.109Z,11.33
2016-05-17T05:59:33.081Z,11.28
2016-05-17T06:00:33.053Z,11.44
2016-05-17T06:01:33.024Z,11.55
2016-05-17T06:02:33.620Z,11.85
2016-05-17T06:03:33.795Z,12.01
2016-05-17T06:04:33.610Z,12.32
2016-05-17T06:05:33.535Z,12.42
2016-05-17T06:06:33.662Z,12.67
2016-05-17T06:07:33.743Z,12.85
2016-05-17T06:08:33.589Z,12.86
2016-05-17T06:09:33.561Z,13.03
2016-05-17T06:10:33.532Z,13.55
2016-05-17T06:11:33.488Z,14.28
2016-05-17T06:12:33.303Z,14.58
2016-05-17T06:13:33.431Z,14.6
2016-05-17T06:14:33.387Z,14.58
2016-05-17T06:15:32.577Z,14.46
2016-05-17T06:16:33.329Z,14.35
2016-05-17T06:17:33.301Z,14.29
2016-05-17T06:18:33.288Z,14.29
2016-05-17T06:19:33.228Z,14.33
2016-05-17T06:20:33.216Z,14.57
2016-05-17T06:21:32.937Z,14.94
2016-05-17T06:22:33.361Z,14.91
2016-05-17T06:23:33.129Z,14.94
2016-05-17T06:24:33.101Z,14.89
2016-05-17T06:25:33.057Z,14.86
2016-05-17T06:26:33.029Z,14.68
2016-05-17T06:27:32.845Z,14.42
2016-05-17T06:28:32.971Z,14.42
2016-05-17T06:29:32.943Z,14.46
2016-05-17T06:30:47.008Z,14.43
2016-05-17T06:31:32.870Z,14.61
2016-05-17T06:32:32.842Z,14.6
2016-05-17T06:33:32.704Z,14.65
2016-05-17T06:34:32.800Z,14.75
2016-05-17T06:35:32.131Z,14.96
2016-05-17T06:36:32.806Z,15.06
2016-05-17T06:37:32.699Z,15.07
2016-05-17T06:38:32.670Z,15.14
2016-05-17T06:39:32.532Z,15.31
2016-05-17T06:40:32.629Z,15.39
2016-05-17T06:41:31.944Z,15.62
2016-05-17T06:42:32.556Z,15.68
2016-05-17T06:43:31.902Z,15.82
2016-05-17T06:44:32.499Z,16
2016-05-17T06:45:32.471Z,16.14
2016-05-17T06:46:32.426Z,16.24
2016-05-17T06:47:31.835Z,16.48
2016-05-17T06:48:32.228Z,16.79
2016-05-17T06:49:32.356Z,17.22
2016-05-17T06:50:32.327Z,17.52
2016-05-17T06:51:32.299Z,18.02
2016-05-17T06:52:31.629Z,18.45
2016-05-17T06:53:32.085Z,19.23
2016-05-17T06:54:32.213Z,20.17
2016-05-17T06:55:32.184Z,21.22
2016-05-17T06:56:32.156Z,22.17
2016-05-17T06:57:32.127Z,22.95
2016-05-17T06:58:32.099Z,23.16
2016-05-17T06:59:32.070Z,22.95
2016-05-17T07:00:32.073Z,22.65
2016-05-17T07:01:31.247Z,22.12
2016-05-17T07:02:31.375Z,21.59
2016-05-17T07:03:31.987Z,21.19
2016-05-17T07:04:32.005Z,20.98
2016-05-17T07:05:31.946Z,21.03
2016-05-17T07:06:32.136Z,21.09
2016-05-17T07:07:31.264Z,20.88
2016-05-17T07:08:31.860Z,20.43
2016-05-17T07:09:31.832Z,19.96
2016-05-17T07:10:31.802Z,19.58
2016-05-17T07:11:30.993Z,19.18
2016-05-17T07:12:31.761Z,18.99
2016-05-17T07:13:31.733Z,18.76
2016-05-17T07:14:31.704Z,18.62
2016-05-17T07:15:31.660Z,18.51
2016-05-17T07:16:31.647Z,18.37
2016-05-17T07:17:31.822Z,18.21
2016-05-17T07:18:31.606Z,18.15
2016-05-17T07:19:31.405Z,18.15
2016-05-17T07:20:30.939Z,18.36
2016-05-17T07:21:31.379Z,19.26
2016-05-17T07:22:31.492Z,20.52
2016-05-17T07:23:31.462Z,21.16
2016-05-17T07:24:31.482Z,21.12
2016-05-17T07:25:31.406Z,20.89
2016-05-17T07:26:31.409Z,20.59
2016-05-17T07:27:31.365Z,20.28
2016-05-17T07:28:30.711Z,19.91
2016-05-17T07:29:31.323Z,19.58
2016-05-17T07:30:31.278Z,19.21
2016-05-17T07:31:31.125Z,18.98
2016-05-17T07:32:31.237Z,18.78
2016-05-17T07:33:31.209Z,18.63
2016-05-17T07:34:30.555Z,18.2
2016-05-17T07:35:31.152Z,17.81
2016-05-17T07:36:31.139Z,17.46
2016-05-17T07:37:31.422Z,17.33
2016-05-17T07:38:31.097Z,17.92
2016-05-17T07:39:31.053Z,18.27
2016-05-17T07:40:30.399Z,18.42
2016-05-17T07:41:30.996Z,18.32
2016-05-17T07:42:30.967Z,18.32
2016-05-17T07:43:30.782Z,18.39
2016-05-17T07:44:30.972Z,18.57
2016-05-17T07:45:30.881Z,18.76
2016-05-17T07:46:30.228Z,19.1
2016-05-17T07:47:30.841Z,19.46
2016-05-17T07:48:31.062Z,20.11
2016-05-17T07:49:30.799Z,21.12
2016-05-17T07:50:30.754Z,21.14
2016-05-17T07:51:30.741Z,21.13
2016-05-17T07:52:31.135Z,21.09
2016-05-17T07:53:30.684Z,21.27
2016-05-17T07:54:30.656Z,21.43
2016-05-17T07:55:30.626Z,21.53
2016-05-17T07:56:30.068Z,21.58
2016-05-17T07:57:29.804Z,22.06
2016-05-17T07:58:29.917Z,22.31
2016-05-17T07:59:30.404Z,22.43
2016-05-17T08:00:30.562Z,22.61
2016-05-17T08:01:30.315Z,22.86
2016-05-17T08:02:30.459Z,22.75
2016-05-17T08:03:30.430Z,22.62
2016-05-17T08:04:30.401Z,22.39
2016-05-17T08:05:30.372Z,22
2016-05-17T08:06:44.470Z,21.59
2016-05-17T08:07:30.488Z,21.47
2016-05-17T08:08:29.693Z,21.56
2016-05-17T08:09:29.509Z,21.79
2016-05-17T08:10:30.261Z,21.83
2016-05-17T08:11:30.249Z,21.82
2016-05-17T08:12:30.423Z,22.75
2016-05-17T08:13:30.019Z,23.57
2016-05-17T08:14:30.163Z,23.85
2016-05-17T08:15:30.149Z,23.78
2016-05-17T08:16:30.121Z,23.48
2016-05-17T08:17:29.655Z,23.09
2016-05-17T08:18:29.423Z,22.57
2016-05-17T08:19:30.035Z,22.09
2016-05-17T08:20:30.023Z,21.56
2016-05-17T08:21:29.384Z,21.17
2016-05-17T08:22:29.982Z,20.85
2016-05-17T08:23:29.312Z,20.41
2016-05-17T08:24:29.284Z,20.2
2016-05-17T08:25:29.270Z,19.92
2016-05-17T08:26:29.867Z,19.63
2016-05-17T08:27:29.698Z,19.44
2016-05-17T08:28:29.825Z,19.19
2016-05-17T08:29:29.172Z,18.91
2016-05-17T08:30:29.659Z,18.81
2016-05-17T08:31:29.006Z,18.58
2016-05-17T08:32:29.711Z,18.42
2016-05-17T08:33:29.683Z,18.27
2016-05-17T08:34:29.654Z,18.25
2016-05-17T08:35:29.001Z,18.15
2016-05-17T08:36:29.831Z,18.2
2016-05-17T08:37:29.584Z,18.36
2016-05-17T08:38:29.556Z,18.63
2016-05-17T08:39:29.527Z,18.95
2016-05-17T08:40:29.514Z,19.28
2016-05-17T08:41:29.470Z,19.76
2016-05-17T08:42:29.441Z,20.01
2016-05-17T08:43:29.475Z,20.06
2016-05-17T08:44:29.383Z,19.91
2016-05-17T08:45:29.355Z,19.8
2016-05-17T08:46:29.327Z,19.65
2016-05-17T08:47:29.299Z,19.58
2016-05-17T08:48:28.660Z,19.44
2016-05-17T08:49:28.647Z,19.25
2016-05-17T08:50:29.274Z,19.13
2016-05-17T08:51:29.402Z,19.02
2016-05-17T08:52:29.171Z,18.88
2016-05-17T08:53:29.143Z,18.88
2016-05-17T08:54:28.974Z,18.73
2016-05-17T08:55:29.101Z,18.75
2016-05-17T08:56:29.073Z,18.58
2016-05-17T08:57:28.404Z,18.51
2016-05-17T08:58:29.000Z,18.51
2016-05-17T08:59:28.987Z,18.45
2016-05-17T09:00:28.818Z,18.35
2016-05-17T09:01:28.429Z,18.27
2016-05-17T09:02:28.901Z,18.18
2016-05-17T09:03:28.872Z,18.03
2016-05-17T09:04:28.219Z,17.96
2016-05-17T09:05:28.019Z,17.87
2016-05-17T09:06:27.849Z,17.64
2016-05-17T09:07:28.102Z,17.52
2016-05-17T09:08:27.933Z,17.4
2016-05-17T09:09:27.920Z,17.33
2016-05-17T09:10:27.892Z,17.23
2016-05-17T09:11:28.488Z,17.28
2016-05-17T09:12:28.631Z,17.36
2016-05-17T09:13:28.446Z,17.48
2016-05-17T09:14:28.559Z,17.71
2016-05-17T09:15:28.530Z,17.79
2016-05-17T09:16:28.517Z,18.11
2016-05-17T09:17:28.488Z,18.2
2016-05-17T09:18:28.460Z,18.66
2016-05-17T09:19:28.415Z,18.92
2016-05-17T09:20:28.387Z,19.11
2016-05-17T09:21:28.218Z,19.28
2016-05-17T09:22:28.330Z,19.61
2016-05-17T09:23:28.318Z,19.86
2016-05-17T09:24:28.507Z,20.06
2016-05-17T09:25:28.244Z,20.59
2016-05-17T09:26:28.232Z,21.12
2016-05-17T09:27:28.218Z,21.54
2016-05-17T09:28:28.174Z,22.62
2016-05-17T09:29:28.177Z,23.28
2016-05-17T09:30:28.117Z,23.78
2016-05-17T09:31:28.104Z,23.78
2016-05-17T09:32:27.295Z,23.75
2016-05-17T09:33:28.048Z,23.48
2016-05-17T09:34:28.034Z,23.27
2016-05-17T09:35:27.381Z,23.17
2016-05-17T09:36:27.899Z,23.17
2016-05-17T09:37:28.636Z,22.92
2016-05-17T09:38:27.920Z,22.91
2016-05-17T09:39:27.907Z,23.22
2016-05-17T09:40:27.878Z,23.61
2016-05-17T09:41:27.912Z,23.94
2016-05-17T09:42:27.822Z,24.02
2016-05-17T09:43:27.808Z,23.57
2016-05-17T09:44:27.795Z,22.98
2016-05-17T09:45:27.766Z,22.42
2016-05-17T09:46:27.738Z,21.92
2016-05-17T09:47:27.569Z,21.42
2016-05-17T09:48:27.680Z,21.32
2016-05-17T09:49:27.668Z,21.28
2016-05-17T09:50:27.655Z,21.46
2016-05-17T09:51:26.483Z,21.58
2016-05-17T09:52:27.739Z,21.61
2016-05-17T09:53:27.570Z,21.68
2016-05-17T09:54:26.914Z,21.96
2016-05-17T09:55:27.525Z,22.1
2016-05-17T09:56:27.497Z,22.25
2016-05-17T09:57:27.469Z,22.45
2016-05-17T09:58:26.815Z,22.58
2016-05-17T09:59:27.427Z,22.72
2016-05-17T10:00:26.773Z,22.62
2016-05-17T10:01:27.385Z,22.54
2016-05-17T10:02:27.185Z,22.49
2016-05-17T10:03:27.312Z,22.79
2016-05-17T10:04:27.300Z,23.66
2016-05-17T10:06:27.351Z,24.43
2016-05-17T10:07:27.229Z,24.49
2016-05-17T10:08:27.232Z,24.87
2016-05-17T10:09:26.548Z,25.14
2016-05-17T10:10:27.206Z,25.7
2016-05-17T10:11:27.131Z,25.99
2016-05-17T10:12:27.102Z,26.1
2016-05-17T10:13:26.950Z,25.67
2016-05-17T10:14:27.061Z,25.35
2016-05-17T10:15:27.033Z,24.85
2016-05-17T10:16:27.020Z,24.39
2016-05-17T10:17:27.022Z,23.57
2016-05-17T10:18:26.994Z,22.77
2016-05-17T10:19:26.950Z,22.15
2016-05-17T10:20:26.921Z,21.56
2016-05-17T10:21:27.127Z,21.21
2016-05-17T10:22:27.020Z,21.09
2016-05-17T10:23:26.085Z,20.73
2016-05-17T10:24:26.822Z,20.51
2016-05-17T10:25:26.840Z,20.33
2016-05-17T10:26:26.813Z,20.05
2016-05-17T10:27:25.971Z,19.87
2016-05-17T10:28:26.582Z,19.39
2016-05-17T10:29:26.727Z,18.98
2016-05-17T10:30:26.885Z,18.7
2016-05-17T10:31:26.856Z,18.51
2016-05-17T10:32:26.641Z,18.44
2016-05-17T10:33:40.740Z,17.93
2016-05-17T10:34:25.959Z,17.86
2016-05-17T10:35:26.571Z,17.49
2016-05-17T10:36:26.542Z,17.34
2016-05-17T10:37:26.513Z,17.23
2016-05-17T10:38:25.845Z,17.22
2016-05-17T10:39:26.456Z,17.34
2016-05-17T10:40:26.459Z,17.34
2016-05-17T10:41:25.775Z,17.19
2016-05-17T10:42:26.371Z,17.3
2016-05-17T10:43:26.576Z,17.38
2016-05-17T10:44:26.361Z,17.7
2016-05-17T10:45:26.504Z,17.82
2016-05-17T10:46:26.272Z,18.21
2016-05-17T10:47:26.478Z,18.7
2016-05-17T10:48:26.215Z,18.99
2016-05-17T10:49:26.061Z,19.14
2016-05-17T10:50:25.533Z,19.55
2016-05-17T10:51:26.239Z,19.68
2016-05-17T10:52:26.148Z,19.51
2016-05-17T10:53:26.088Z,19.14
2016-05-17T10:54:26.060Z,18.95
2016-05-17T10:55:26.046Z,18.72
2016-05-17T10:56:25.408Z,18.66
2016-05-17T10:57:25.989Z,18.42
2016-05-17T10:58:25.960Z,18.27
2016-05-17T10:59:25.932Z,17.95
2016-05-17T11:00:25.904Z,17.72
2016-05-17T11:01:40.002Z,17.49
2016-05-17T11:02:25.846Z,17.33
2016-05-17T11:03:39.945Z,17.23
2016-05-17T11:04:25.804Z,17
2016-05-17T11:05:25.776Z,16.76
2016-05-17T11:06:25.748Z,16.75
2016-05-17T11:07:25.719Z,16.86
2016-05-17T11:08:25.534Z,16.88
2016-05-17T11:09:25.068Z,17.06
2016-05-17T11:10:25.462Z,17.18
2016-05-17T11:11:25.589Z,17.22
2016-05-17T11:12:25.576Z,17.22
2016-05-17T11:13:25.531Z,17.22
2016-05-17T11:14:25.519Z,17.3
2016-05-17T11:15:25.725Z,17.25
2016-05-17T11:16:25.461Z,17.36
2016-05-17T11:17:25.277Z,17.31
2016-05-17T11:18:25.405Z,17.4
2016-05-17T11:19:25.423Z,17.38
2016-05-17T11:20:25.348Z,17.34
2016-05-17T11:21:25.320Z,17.36
2016-05-17T11:22:25.743Z,17.37
2016-05-17T11:23:25.277Z,17.46
2016-05-17T11:24:25.234Z,17.46
2016-05-17T11:25:25.205Z,17.43
2016-05-17T11:26:25.177Z,17.31
2016-05-17T11:27:25.149Z,17.04
2016-05-17T11:28:24.369Z,16.96
2016-05-17T11:29:25.107Z,16.83
2016-05-17T11:30:25.265Z,16.86
2016-05-17T11:31:24.409Z,16.88
2016-05-17T11:32:25.005Z,17.01
2016-05-17T11:33:24.977Z,17.12
2016-05-17T11:34:24.338Z,17.12
2016-05-17T11:35:24.920Z,17.23
2016-05-17T11:36:24.907Z,17.33
2016-05-17T11:37:25.362Z,17.16
2016-05-17T11:38:24.880Z,16.97
2016-05-17T11:39:24.806Z,16.75
2016-05-17T11:40:24.620Z,16.63
2016-05-17T11:41:24.764Z,16.53
2016-05-17T11:42:24.564Z,16.56
2016-05-17T11:43:24.691Z,16.56
2016-05-17T11:44:24.647Z,16.68
2016-05-17T11:45:24.633Z,16.75
2016-05-17T11:46:24.605Z,16.81
2016-05-17T11:47:24.420Z,16.88
2016-05-17T11:48:24.548Z,16.96
2016-05-17T11:49:23.878Z,16.97
2016-05-17T11:50:24.475Z,17.03
2016-05-17T11:51:24.447Z,16.94
2016-05-17T11:52:24.793Z,16.97
2016-05-17T11:53:23.764Z,17.01
2016-05-17T11:54:23.783Z,17.01
2016-05-17T11:55:23.707Z,17.16
2016-05-17T11:56:24.319Z,17.36
2016-05-17T11:57:24.275Z,17.41
2016-05-17T11:58:23.621Z,17.58
2016-05-17T11:59:24.235Z,17.7
2016-05-17T12:00:23.566Z,17.75
2016-05-17T12:01:24.176Z,17.92
2016-05-17T12:02:24.132Z,18.11
2016-05-17T12:03:24.104Z,18.08
2016-05-17T12:04:23.935Z,18.15
2016-05-17T12:05:24.046Z,18.1
2016-05-17T12:06:24.222Z,18.07
2016-05-17T12:07:24.162Z,17.97
2016-05-17T12:08:24.008Z,18.08
2016-05-17T12:09:23.995Z,18.1
2016-05-17T12:11:23.734Z,17.97
2016-05-17T12:12:23.706Z,17.82
2016-05-17T12:13:23.193Z,17.87
2016-05-17T12:14:23.790Z,17.97
2016-05-17T12:15:23.777Z,18.11
2016-05-17T12:16:23.748Z,18.07
2016-05-17T12:17:23.814Z,17.99
2016-05-17T12:18:23.050Z,17.97
2016-05-17T12:19:23.038Z,18.14
2016-05-17T12:20:23.634Z,18.11
2016-05-17T12:21:23.637Z,18.3
2016-05-17T12:22:23.577Z,18.44
2016-05-17T12:23:23.549Z,18.62
2016-05-17T12:24:23.519Z,18.67
2016-05-17T12:25:23.491Z,18.54
2016-05-17T12:26:23.463Z,18.41
2016-05-17T12:27:22.810Z,18.39
2016-05-17T12:29:23.393Z,18.51
2016-05-17T12:30:23.349Z,18.55
2016-05-17T12:31:23.321Z,18.65
2016-05-17T12:32:22.682Z,18.7
2016-05-17T12:33:23.263Z,18.57
2016-05-17T12:34:23.235Z,18.45
2016-05-17T12:35:23.206Z,18.21
2016-05-17T12:36:23.193Z,17.92
2016-05-17T12:37:23.429Z,17.71
2016-05-17T12:38:23.120Z,17.52
2016-05-17T12:39:22.935Z,17.43
2016-05-17T12:40:23.079Z,17.54
2016-05-17T12:41:23.034Z,17.52
2016-05-17T12:42:23.068Z,17.55
2016-05-17T12:43:22.993Z,17.63
2016-05-17T12:44:22.965Z,17.71
2016-05-17T12:45:22.920Z,17.89
2016-05-17T12:46:22.923Z,17.96
2016-05-17T12:47:22.864Z,17.84
2016-05-17T12:48:22.225Z,17.79
2016-05-17T12:49:22.180Z,17.92
2016-05-17T12:50:22.824Z,17.97
2016-05-17T12:51:22.764Z,18.14
2016-05-17T12:52:22.111Z,18.42
2016-05-17T12:53:22.707Z,18.52
2016-05-17T12:54:22.678Z,18.75
2016-05-17T12:55:22.650Z,18.72
2016-05-17T12:56:22.622Z,18.78
2016-05-17T12:57:22.594Z,18.91
2016-05-17T12:58:21.939Z,19.02
2016-05-17T12:59:22.613Z,19.14
2016-05-17T13:00:22.507Z,19.02
2016-05-17T13:01:21.869Z,18.91
2016-05-17T13:02:22.450Z,18.72
2016-05-17T13:03:22.422Z,18.58
2016-05-17T13:04:22.252Z,18.45
2016-05-17T13:05:22.458Z,18.52
2016-05-17T13:06:21.711Z,18.75
2016-05-17T13:07:21.526Z,18.92
2016-05-17T13:08:22.123Z,18.95
2016-05-17T13:09:22.250Z,19.18